Погода Коксуна 2 недели

Алматинская область, Казахстан

19 июля-01 августа
  • 19июля
    Сегодня
    +18°
    +32°
    Небольшая облачность, возможен дождь с грозой
    ВремяПогодаТемператураВлажностьДавлениеВетер, м/сВероятность осадков
    02:00Облачно с прояснениями+22°C66 %704 мм2.3 м/с2 %
    05:00Практически безоблачно+20°C68 %705 мм2.2 м/с2 %
    08:00Ясно и безоблачно+26°C48 %706 мм3.3 м/с2 %
    11:00Практически безоблачно+31°C35 %705 мм3.5 м/с3 %
    14:00Небольшая облачность, возможен дождь с грозой+30°C36 %705 мм2.9 м/с16 %
    17:00Облачно с прояснениями+30°C39 %705 мм2.7 м/с27 %
    20:00Облачно с прояснениями+22°C68 %705 мм1.8 м/с5 %
    23:00Практически безоблачно+23°C67 %705 мм1.8 м/с2 %
  • 20июля
    Суббота
    +18°
    +31°
    Ясно и безоблачно
    ВремяПогодаТемператураВлажностьДавлениеВетер, м/сВероятность осадков
    02:00Ясно и безоблачно+22°C69 %705 мм2.2 м/с2 %
    05:00Ясно и безоблачно+19°C78 %705 мм1.6 м/с2 %
    08:00Ясно и безоблачно+27°C47 %706 мм1.5 м/с2 %
    11:00Практически безоблачно+31°C35 %706 мм2.8 м/с8 %
    14:00Ясно и безоблачно+30°C42 %707 мм2.4 м/с25 %
    17:00Практически безоблачно+30°C41 %707 мм2.3 м/с24 %
    20:00Ясно и безоблачно+23°C59 %707 мм1.6 м/с10 %
    23:00Практически безоблачно+21°C71 %707 мм1.2 м/с13 %
  • 21июля
    Воскресенье
    +19°
    +31°
    Ясно и безоблачно
    ВремяПогодаТемператураВлажностьДавлениеВетер, м/сВероятность осадков
    02:00Практически безоблачно+20°C74 %706 мм1.8 м/с11 %
    05:00Ясно и безоблачно+19°C82 %707 мм1.8 м/с8 %
    08:00Ясно и безоблачно+26°C48 %708 мм2.8 м/с7 %
    11:00Ясно и безоблачно+29°C31 %709 мм2.5 м/с12 %
    14:00Ясно и безоблачно+31°C29 %708 мм2.2 м/с8 %
    17:00Небольшая облачность+31°C28 %708 мм2.3 м/с6 %
    20:00Ясно и безоблачно+25°C48 %707 мм1.9 м/с2 %
    23:00Ясно и безоблачно+22°C60 %707 мм1.9 м/с2 %
  • 22июля
    Понедельник
    +19°
    +34°
    Ясно и безоблачно
    ВремяПогодаТемператураВлажностьДавлениеВетер, м/сВероятность осадков
    02:00Ясно и безоблачно+20°C66 %706 мм1.4 м/с2 %
    05:00Ясно и безоблачно+20°C65 %706 мм1.4 м/с2 %
    08:00Ясно и безоблачно+28°C41 %708 мм0.4 м/с2 %
    11:00Ясно и безоблачно+32°C28 %708 мм1.8 м/с2 %
    14:00Ясно и безоблачно+34°C24 %707 мм2.0 м/с2 %
    17:00Ясно и безоблачно+33°C25 %707 мм1.9 м/с2 %
    20:00Ясно и безоблачно+28°C40 %707 мм4.3 м/с2 %
    23:00Ясно и безоблачно+25°C47 %707 мм2.4 м/с2 %
  • 23июля
    Вторник
    +21°
    +36°
    Ясно и безоблачно
    ВремяПогодаТемператураВлажностьДавлениеВетер, м/сВероятность осадков
    02:00Ясно и безоблачно+21°C63 %705 мм1.9 м/с2 %
    05:00Ясно и безоблачно+20°C61 %705 мм1.8 м/с2 %
    08:00Ясно и безоблачно+30°C37 %706 мм1.4 м/с2 %
    11:00Ясно и безоблачно+34°C22 %706 мм1.7 м/с3 %
    14:00Ясно и безоблачно+35°C22 %705 мм2.8 м/с2 %
    17:00Облачно с прояснениями+34°C25 %705 мм2.7 м/с2 %
    20:00Облачно с прояснениями+29°C37 %705 мм2.4 м/с2 %
    23:00Облачно с прояснениями+25°C47 %705 мм1.8 м/с2 %
Мы используем cookies
Соглашаюсь